Greenwald, Minnesota
Current Conditions -  °F | °C
As of 8:32 AM on Friday 31 Oct 2014 (Local Time) from KD39 Reporting Station
Clear Clear  
Wind Chill: 14°   Ceiling: Unl
Heat Index: 22°   Visibility: 10mi
Dew Point: 17°   Wind: 7mph
Humidity: 82%   Direction: 310°NW
Pressure: 30.56"   Gusts: NA
Location:  45.6°N, 94.86°W
Report Text: KD39 311332Z AUTO 31006KT 10SM CLR M05/M08 A3056 RMK AO2 T10551082
Loading
Personal Weather Stations






























Interactive Weather Map
Tropical Storm Tracking
New forecast layout! Learn more

10-Day Weather Forecast

Advertisements
Track Severe Weather on mobile